createdAt,value
2018-12-24T00:00:33.773Z,991.1
2018-12-24T00:01:34.443Z,991.0
2018-12-24T00:02:35.112Z,991.0
2018-12-24T00:03:35.783Z,991.0
2018-12-24T00:04:36.453Z,991.0
2018-12-24T00:05:37.123Z,991.0
2018-12-24T00:06:37.792Z,991.0
2018-12-24T00:07:38.463Z,991.0
2018-12-24T00:08:39.133Z,991.0
2018-12-24T00:09:39.803Z,991.0
2018-12-24T00:10:40.474Z,991.0
2018-12-24T00:11:41.143Z,991.0
2018-12-24T00:12:41.815Z,991.0
2018-12-24T00:13:42.484Z,991.0
2018-12-24T00:14:43.205Z,991.0
2018-12-24T00:15:43.871Z,991.0
2018-12-24T00:16:44.541Z,991.0
2018-12-24T00:17:45.212Z,991.1
2018-12-24T00:18:45.887Z,991.1
2018-12-24T00:19:46.602Z,991.1
2018-12-24T00:20:47.273Z,991.1
2018-12-24T00:21:47.943Z,991.1
2018-12-24T00:22:48.706Z,991.1
2018-12-24T00:23:49.327Z,991.1
2018-12-24T00:24:49.997Z,991.2
2018-12-24T00:25:50.667Z,991.1
2018-12-24T00:26:51.386Z,991.2
2018-12-24T00:27:52.055Z,991.1
2018-12-24T00:28:52.726Z,991.1
2018-12-24T00:29:53.396Z,991.1
2018-12-24T00:30:54.065Z,991.1
2018-12-24T00:31:54.734Z,991.1
2018-12-24T00:32:55.404Z,991.1
2018-12-24T00:33:56.074Z,991.1
2018-12-24T00:34:56.744Z,991.1
2018-12-24T00:35:57.414Z,991.1
2018-12-24T00:36:58.089Z,991.1
2018-12-24T00:37:58.756Z,991.1
2018-12-24T00:38:59.426Z,991.1
2018-12-24T00:40:00.096Z,991.2
2018-12-24T00:41:00.764Z,991.1
2018-12-24T00:42:01.435Z,991.1
2018-12-24T00:43:02.109Z,991.1
2018-12-24T00:44:02.775Z,991.2
2018-12-24T00:45:03.444Z,991.2
2018-12-24T00:46:04.114Z,991.2
2018-12-24T00:47:04.784Z,991.2
2018-12-24T00:48:05.455Z,991.3
2018-12-24T00:49:06.126Z,991.3
2018-12-24T00:50:06.845Z,991.4
2018-12-24T00:51:07.514Z,991.4
2018-12-24T00:52:08.186Z,991.4
2018-12-24T00:53:08.857Z,991.4
2018-12-24T00:54:09.528Z,991.5
2018-12-24T00:55:10.196Z,991.5
2018-12-24T00:56:10.866Z,991.5
2018-12-24T00:57:11.542Z,991.6
2018-12-24T00:58:12.207Z,991.6
2018-12-24T00:59:12.880Z,991.6
2018-12-24T01:00:13.548Z,991.6
2018-12-24T01:01:14.218Z,991.6
2018-12-24T01:02:14.887Z,991.6
2018-12-24T01:03:15.558Z,991.7
2018-12-24T01:04:16.227Z,991.7
2018-12-24T01:05:16.896Z,991.8
2018-12-24T01:06:17.568Z,991.8
2018-12-24T01:07:18.237Z,991.9
2018-12-24T01:08:18.908Z,991.9
2018-12-24T01:09:19.577Z,991.9
2018-12-24T01:10:20.248Z,992.0
2018-12-24T01:11:20.918Z,992.0
2018-12-24T01:12:24.750Z,991.9
2018-12-24T01:13:23.250Z,991.9
2018-12-24T01:14:23.918Z,991.9
2018-12-24T01:15:24.587Z,991.9
2018-12-24T01:16:25.259Z,991.8
2018-12-24T01:17:25.977Z,991.8
2018-12-24T01:18:26.646Z,991.8
2018-12-24T01:19:27.316Z,991.8
2018-12-24T01:20:27.987Z,991.8
2018-12-24T01:21:28.657Z,991.8
2018-12-24T01:22:29.326Z,991.9
2018-12-24T01:23:30.044Z,991.9
2018-12-24T01:24:30.716Z,991.9
2018-12-24T01:25:31.383Z,992.0
2018-12-24T01:26:32.055Z,992.0
2018-12-24T01:27:32.773Z,992.0
2018-12-24T01:28:33.442Z,992.1
2018-12-24T01:29:34.112Z,992.1
2018-12-24T01:30:34.783Z,992.1
2018-12-24T01:31:35.454Z,992.1
2018-12-24T01:32:36.120Z,992.1
2018-12-24T01:33:36.793Z,992.1
2018-12-24T01:34:37.511Z,992.1
2018-12-24T01:35:38.178Z,992.1
2018-12-24T01:36:38.849Z,992.1
2018-12-24T01:37:39.518Z,992.1
2018-12-24T01:38:40.188Z,992.1
2018-12-24T01:39:40.908Z,992.1
2018-12-24T01:40:41.579Z,992.0
2018-12-24T01:41:42.246Z,992.0
2018-12-24T01:42:42.965Z,992.1
2018-12-24T01:43:43.632Z,992.2
2018-12-24T01:44:44.303Z,992.2
2018-12-24T01:45:44.973Z,992.1
2018-12-24T01:46:45.643Z,992.2
2018-12-24T01:47:46.312Z,992.2
2018-12-24T01:48:46.982Z,992.2
2018-12-24T01:49:47.650Z,992.2
2018-12-24T01:50:48.322Z,992.2
2018-12-24T01:51:48.992Z,992.2
2018-12-24T01:52:49.661Z,992.3
2018-12-24T01:53:50.331Z,992.3
2018-12-24T01:54:50.999Z,992.3
2018-12-24T01:55:51.669Z,992.4
2018-12-24T01:56:52.338Z,992.4
2018-12-24T01:57:53.008Z,992.4
2018-12-24T01:58:53.677Z,992.5
2018-12-24T01:59:54.347Z,992.4
2018-12-24T02:00:55.019Z,992.5
2018-12-24T02:01:55.686Z,992.5
2018-12-24T02:02:56.356Z,992.5
2018-12-24T02:03:57.024Z,992.6
2018-12-24T02:04:57.742Z,992.6
2018-12-24T02:05:58.412Z,992.6
2018-12-24T02:06:59.083Z,992.6
2018-12-24T02:07:59.752Z,992.7
2018-12-24T02:09:00.422Z,992.7
2018-12-24T02:10:01.094Z,992.8
2018-12-24T02:11:01.768Z,992.8
2018-12-24T02:12:02.433Z,992.7
2018-12-24T02:13:03.101Z,992.8
2018-12-24T02:14:03.774Z,992.8
2018-12-24T02:15:04.442Z,992.8
2018-12-24T02:16:05.112Z,992.8
2018-12-24T02:17:05.780Z,992.8
2018-12-24T02:18:06.449Z,992.8
2018-12-24T02:19:07.118Z,992.8
2018-12-24T02:20:07.788Z,992.8
2018-12-24T02:21:08.458Z,992.8
2018-12-24T02:22:12.906Z,992.8
2018-12-24T02:23:10.793Z,992.7
2018-12-24T02:24:11.459Z,992.7
2018-12-24T02:25:12.128Z,992.8
2018-12-24T02:26:12.798Z,992.8
2018-12-24T02:27:13.466Z,992.9
2018-12-24T02:28:14.137Z,992.9
2018-12-24T02:29:14.807Z,992.9
2018-12-24T02:30:15.478Z,993.0
2018-12-24T02:31:16.149Z,993.0
2018-12-24T02:32:16.820Z,993.0
2018-12-24T02:33:17.488Z,993.1
2018-12-24T02:34:18.161Z,993.0
2018-12-24T02:35:18.828Z,993.1
2018-12-24T02:36:19.499Z,993.1
2018-12-24T02:37:20.262Z,993.1
2018-12-24T02:38:20.899Z,993.1
2018-12-24T02:39:21.569Z,993.1
2018-12-24T02:40:22.239Z,993.2
2018-12-24T02:41:22.909Z,993.2
2018-12-24T02:42:23.579Z,993.2
2018-12-24T02:43:24.249Z,993.3
2018-12-24T02:44:24.918Z,993.3
2018-12-24T02:45:25.588Z,993.3
2018-12-24T02:46:26.259Z,993.3
2018-12-24T02:47:26.945Z,993.3
2018-12-24T02:48:27.603Z,993.3
2018-12-24T02:49:28.266Z,993.4
2018-12-24T02:50:28.939Z,993.4
2018-12-24T02:51:29.608Z,993.4
2018-12-24T02:52:30.276Z,993.5
2018-12-24T02:53:30.946Z,993.5
2018-12-24T02:54:31.628Z,993.5
2018-12-24T02:55:32.334Z,993.5
2018-12-24T02:56:33.006Z,993.5
2018-12-24T02:57:33.679Z,993.5
2018-12-24T02:58:34.497Z,993.6
2018-12-24T02:59:35.133Z,993.5
2018-12-24T03:00:35.802Z,993.5
2018-12-24T03:01:36.474Z,993.5
2018-12-24T03:02:37.142Z,993.5
2018-12-24T03:03:37.814Z,993.5
2018-12-24T03:04:38.482Z,993.6
2018-12-24T03:05:39.150Z,993.6
2018-12-24T03:06:39.821Z,993.6
2018-12-24T03:07:40.489Z,993.6
2018-12-24T03:08:41.160Z,993.5
2018-12-24T03:09:41.835Z,993.6
2018-12-24T03:10:42.496Z,993.6
2018-12-24T03:11:43.168Z,993.6
2018-12-24T03:12:43.835Z,993.6
2018-12-24T03:13:44.510Z,993.6
2018-12-24T03:14:45.173Z,993.6
2018-12-24T03:15:45.844Z,993.6
2018-12-24T03:16:46.513Z,993.7
2018-12-24T03:17:47.184Z,993.6
2018-12-24T03:18:47.852Z,993.6
2018-12-24T03:19:48.522Z,993.7
2018-12-24T03:20:49.189Z,993.6
2018-12-24T03:21:49.860Z,993.7
2018-12-24T03:22:50.530Z,993.7
2018-12-24T03:23:51.200Z,993.8
2018-12-24T03:24:51.870Z,993.8
2018-12-24T03:25:52.539Z,993.7
2018-12-24T03:26:53.207Z,993.7
2018-12-24T03:27:53.953Z,993.8
2018-12-24T03:28:54.573Z,993.8
2018-12-24T03:29:55.241Z,993.9
2018-12-24T03:30:55.912Z,993.8
2018-12-24T03:31:56.581Z,993.8
2018-12-24T03:32:57.257Z,993.9
2018-12-24T03:33:57.915Z,993.8
2018-12-24T03:34:58.631Z,993.9
2018-12-24T03:35:59.300Z,993.9
2018-12-24T03:36:59.971Z,994.0
2018-12-24T03:38:00.645Z,993.9
2018-12-24T03:39:01.359Z,994.0
2018-12-24T03:40:02.030Z,994.0
2018-12-24T03:41:02.750Z,994.0
2018-12-24T03:42:03.415Z,994.0
2018-12-24T03:43:12.547Z,994.0
2018-12-24T03:44:05.751Z,994.0
2018-12-24T03:45:06.417Z,994.0
2018-12-24T03:46:07.086Z,994.1
2018-12-24T03:47:07.756Z,994.0
2018-12-24T03:48:08.424Z,994.0
2018-12-24T03:49:09.098Z,994.0
2018-12-24T03:50:09.764Z,994.2
2018-12-24T03:51:10.437Z,994.1
2018-12-24T03:52:11.152Z,994.2
2018-12-24T03:53:11.822Z,994.2
2018-12-24T03:54:12.491Z,994.2
2018-12-24T03:55:13.161Z,994.2
2018-12-24T03:56:13.839Z,994.2
2018-12-24T03:57:14.502Z,994.3
2018-12-24T03:58:15.175Z,994.3
2018-12-24T03:59:15.893Z,994.3
2018-12-24T04:00:16.611Z,994.3
2018-12-24T04:01:17.279Z,994.4
2018-12-24T04:02:17.950Z,994.4
2018-12-24T04:03:18.619Z,994.4
2018-12-24T04:04:19.293Z,994.5
2018-12-24T04:05:19.960Z,994.5
2018-12-24T04:06:20.628Z,994.5
2018-12-24T04:07:21.296Z,994.5
2018-12-24T04:08:21.968Z,994.6
2018-12-24T04:09:22.684Z,994.5
2018-12-24T04:10:23.355Z,994.6
2018-12-24T04:11:24.327Z,994.6
2018-12-24T04:12:24.984Z,994.7
2018-12-24T04:13:25.655Z,994.7
2018-12-24T04:14:26.321Z,994.7
2018-12-24T04:15:26.991Z,994.7
2018-12-24T04:16:27.751Z,994.8
2018-12-24T04:17:28.419Z,994.8
2018-12-24T04:18:29.089Z,994.8
2018-12-24T04:19:29.757Z,994.8
2018-12-24T04:20:30.428Z,994.8
2018-12-24T04:21:31.099Z,994.8
2018-12-24T04:22:31.766Z,994.8
2018-12-24T04:23:32.435Z,994.9
2018-12-24T04:24:33.104Z,994.8
2018-12-24T04:25:33.774Z,994.8
2018-12-24T04:26:34.442Z,994.9
2018-12-24T04:27:41.621Z,994.9
2018-12-24T04:28:36.780Z,995.0
2018-12-24T04:29:37.443Z,995.0
2018-12-24T04:30:38.116Z,995.0
2018-12-24T04:31:38.784Z,995.0
2018-12-24T04:32:39.453Z,995.0
2018-12-24T04:33:40.123Z,995.1
2018-12-24T04:34:40.792Z,995.1
2018-12-24T04:35:41.511Z,995.1
2018-12-24T04:36:42.182Z,995.1
2018-12-24T04:37:42.851Z,995.1
2018-12-24T04:38:43.525Z,995.2
2018-12-24T04:39:44.187Z,995.2
2018-12-24T04:40:44.864Z,995.3
2018-12-24T04:41:45.578Z,995.4
2018-12-24T04:42:46.294Z,995.4
2018-12-24T04:43:46.965Z,995.4
2018-12-24T04:44:47.635Z,995.4
2018-12-24T04:45:48.305Z,995.4
2018-12-24T04:46:48.975Z,995.5
2018-12-24T04:47:49.645Z,995.6
2018-12-24T04:48:50.316Z,995.6
2018-12-24T04:49:50.995Z,995.6
2018-12-24T04:50:51.654Z,995.6
2018-12-24T04:51:52.324Z,995.7
2018-12-24T04:52:52.993Z,995.8
2018-12-24T04:53:53.663Z,995.8
2018-12-24T04:54:54.333Z,995.9
2018-12-24T04:55:55.003Z,995.9
2018-12-24T04:56:55.672Z,995.9
2018-12-24T04:57:56.340Z,995.9
2018-12-24T04:58:57.013Z,995.9
2018-12-24T04:59:57.680Z,996.0
2018-12-24T05:00:58.348Z,996.0
2018-12-24T05:01:59.019Z,996.0
2018-12-24T05:02:59.689Z,996.1
2018-12-24T05:04:00.357Z,996.2
2018-12-24T05:05:01.028Z,996.2
2018-12-24T05:06:01.696Z,996.2
2018-12-24T05:07:02.369Z,996.2
2018-12-24T05:08:03.035Z,996.2
2018-12-24T05:09:03.710Z,996.2
2018-12-24T05:10:04.377Z,996.3
2018-12-24T05:11:05.046Z,996.3
2018-12-24T05:12:05.772Z,996.3
2018-12-24T05:13:06.442Z,996.3
2018-12-24T05:14:07.113Z,996.4
2018-12-24T05:15:07.829Z,996.3
2018-12-24T05:16:08.547Z,996.4
2018-12-24T05:17:09.219Z,996.5
2018-12-24T05:18:09.888Z,996.5
2018-12-24T05:19:10.557Z,996.5
2018-12-24T05:20:11.226Z,996.5
2018-12-24T05:21:11.896Z,996.6
2018-12-24T05:22:12.565Z,996.6
2018-12-24T05:23:13.241Z,996.7
2018-12-24T05:24:13.953Z,996.7
2018-12-24T05:25:14.622Z,996.7
2018-12-24T05:26:15.292Z,996.7
2018-12-24T05:27:16.011Z,996.7
2018-12-24T05:28:16.680Z,996.7
2018-12-24T05:29:17.349Z,996.8
2018-12-24T05:30:18.017Z,996.8
2018-12-24T05:31:18.690Z,996.9
2018-12-24T05:32:19.358Z,996.8
2018-12-24T05:33:20.027Z,996.9
2018-12-24T05:34:20.695Z,996.9
2018-12-24T05:35:21.364Z,996.9
2018-12-24T05:36:22.035Z,997.0
2018-12-24T05:37:22.707Z,997.0
2018-12-24T05:38:23.374Z,997.0
2018-12-24T05:39:24.043Z,997.1
2018-12-24T05:40:24.714Z,997.2
2018-12-24T05:41:25.383Z,997.1
2018-12-24T05:42:26.054Z,997.3
2018-12-24T05:43:26.722Z,997.3
2018-12-24T05:44:27.392Z,997.3
2018-12-24T05:45:28.064Z,997.4
2018-12-24T05:46:28.731Z,997.5
2018-12-24T05:47:29.401Z,997.5
2018-12-24T05:48:30.071Z,997.4
2018-12-24T05:49:30.742Z,997.5
2018-12-24T05:50:31.412Z,997.6
2018-12-24T05:51:32.081Z,997.6
2018-12-24T05:52:32.754Z,997.6
2018-12-24T05:53:33.421Z,997.6
2018-12-24T05:54:34.139Z,997.7
2018-12-24T05:55:34.810Z,997.7
2018-12-24T05:56:35.480Z,997.7
2018-12-24T05:57:36.148Z,997.7
2018-12-24T05:58:36.817Z,997.7
2018-12-24T05:59:37.488Z,997.8
2018-12-24T06:00:38.157Z,997.8
2018-12-24T06:01:38.827Z,997.9
2018-12-24T06:02:39.497Z,997.9
2018-12-24T06:03:40.171Z,997.9
2018-12-24T06:04:40.839Z,998.0
2018-12-24T06:05:41.508Z,998.0
2018-12-24T06:06:42.178Z,998.0
2018-12-24T06:07:42.914Z,998.1
2018-12-24T06:08:43.536Z,998.2
2018-12-24T06:09:44.206Z,998.2
2018-12-24T06:10:44.875Z,998.2
2018-12-24T06:11:45.545Z,998.2
2018-12-24T06:12:46.214Z,998.3
2018-12-24T06:13:46.885Z,998.3
2018-12-24T06:14:47.553Z,998.4
2018-12-24T06:15:48.222Z,998.4
2018-12-24T06:16:48.891Z,998.5
2018-12-24T06:17:49.562Z,998.6
2018-12-24T06:18:50.231Z,998.5
2018-12-24T06:19:50.902Z,998.6
2018-12-24T06:20:51.573Z,998.7
2018-12-24T06:21:52.243Z,998.7
2018-12-24T06:22:52.911Z,998.7
2018-12-24T06:23:53.683Z,998.8
2018-12-24T06:24:54.352Z,998.8
2018-12-24T06:25:55.826Z,998.8
2018-12-24T06:26:56.497Z,998.9
2018-12-24T06:27:57.167Z,998.9
2018-12-24T06:28:57.835Z,999.0
2018-12-24T06:29:58.507Z,999.0
2018-12-24T06:30:59.178Z,998.9
2018-12-24T06:31:59.847Z,999.0
2018-12-24T06:33:00.516Z,999.1
2018-12-24T06:34:01.189Z,999.1
2018-12-24T06:35:01.858Z,999.1
2018-12-24T06:36:02.528Z,999.1
2018-12-24T06:37:03.200Z,999.2
2018-12-24T06:38:03.869Z,999.2
2018-12-24T06:39:04.539Z,999.2
2018-12-24T06:40:05.324Z,999.3
2018-12-24T06:41:05.949Z,999.3
2018-12-24T06:42:06.618Z,999.3
2018-12-24T06:43:07.340Z,999.4
2018-12-24T06:44:08.006Z,999.4
2018-12-24T06:45:08.678Z,999.5
2018-12-24T06:46:09.349Z,999.5
2018-12-24T06:47:10.016Z,999.5
2018-12-24T06:48:10.686Z,999.5
2018-12-24T06:49:11.357Z,999.6
2018-12-24T06:50:12.029Z,999.6
2018-12-24T06:51:12.696Z,999.6
2018-12-24T06:52:13.367Z,999.7
2018-12-24T06:53:14.037Z,999.7
2018-12-24T06:54:14.707Z,999.7
2018-12-24T06:55:15.376Z,999.7
2018-12-24T06:56:16.047Z,999.8
2018-12-24T06:57:16.716Z,999.8
2018-12-24T06:58:17.386Z,999.8
2018-12-24T06:59:18.058Z,999.8
2018-12-24T07:00:18.726Z,999.9
2018-12-24T07:01:19.396Z,999.9
2018-12-24T07:02:20.065Z,999.9
2018-12-24T07:03:20.735Z,999.9
2018-12-24T07:04:21.408Z,1000.0
2018-12-24T07:05:22.081Z,1000.1
2018-12-24T07:06:22.751Z,1000.1
2018-12-24T07:07:23.424Z,1000.1
2018-12-24T07:08:24.097Z,1000.1
2018-12-24T07:09:24.768Z,1000.1
2018-12-24T07:10:25.440Z,1000.2
2018-12-24T07:11:26.114Z,1000.2
2018-12-24T07:12:26.835Z,1000.2
2018-12-24T07:13:27.507Z,1000.2
2018-12-24T07:14:28.178Z,1000.2
2018-12-24T07:15:28.851Z,1000.2
2018-12-24T07:16:29.523Z,1000.3
2018-12-24T07:17:30.194Z,1000.3
2018-12-24T07:18:30.868Z,1000.4
2018-12-24T07:19:31.539Z,1000.4
2018-12-24T07:20:32.211Z,1000.4
2018-12-24T07:21:32.883Z,1000.5
2018-12-24T07:22:33.554Z,1000.5
2018-12-24T07:23:34.227Z,1000.5
2018-12-24T07:24:34.949Z,1000.6
2018-12-24T07:25:35.622Z,1000.6
2018-12-24T07:26:36.293Z,1000.7
2018-12-24T07:27:36.966Z,1000.6
2018-12-24T07:28:37.637Z,1000.7
2018-12-24T07:29:38.309Z,1000.7
2018-12-24T07:30:38.981Z,1000.7
2018-12-24T07:31:39.652Z,1000.7
2018-12-24T07:32:40.323Z,1000.8
2018-12-24T07:33:40.996Z,1000.7
2018-12-24T07:34:41.717Z,1000.8
2018-12-24T07:35:42.388Z,1000.8
2018-12-24T07:36:43.063Z,1000.9
2018-12-24T07:37:43.783Z,1000.9
2018-12-24T07:38:44.456Z,1001.0
2018-12-24T07:39:45.126Z,1001.0
2018-12-24T07:40:45.799Z,1001.0
2018-12-24T07:41:46.520Z,1001.0
2018-12-24T07:42:47.191Z,1001.1
2018-12-24T07:43:47.863Z,1001.1
2018-12-24T07:44:48.541Z,1001.1
2018-12-24T07:45:49.261Z,1001.1
2018-12-24T07:46:49.936Z,1001.1
2018-12-24T07:47:50.609Z,1001.1
2018-12-24T07:48:51.282Z,1001.1
2018-12-24T07:49:51.958Z,1001.1
2018-12-24T07:50:52.633Z,1001.2
2018-12-24T07:51:53.306Z,1001.2
2018-12-24T07:52:53.981Z,1001.2
2018-12-24T07:53:54.656Z,1001.2
2018-12-24T07:54:55.331Z,1001.3
2018-12-24T07:55:56.005Z,1001.3
2018-12-24T07:56:56.678Z,1001.3
2018-12-24T07:57:57.352Z,1001.4
2018-12-24T07:58:58.028Z,1001.4
2018-12-24T07:59:58.701Z,1001.4
2018-12-24T08:00:59.375Z,1001.5
2018-12-24T08:02:00.049Z,1001.5
2018-12-24T08:03:00.723Z,1001.5
2018-12-24T08:04:01.396Z,1001.6
2018-12-24T08:05:02.071Z,1001.6
2018-12-24T08:06:02.747Z,1001.7
2018-12-24T08:07:03.419Z,1001.7
2018-12-24T08:08:04.093Z,1001.7
2018-12-24T08:09:04.864Z,1001.7
2018-12-24T08:10:05.502Z,1001.7
2018-12-24T08:11:06.239Z,1001.8
2018-12-24T08:12:06.914Z,1001.8
2018-12-24T08:13:07.588Z,1001.8
2018-12-24T08:14:08.260Z,1001.8
2018-12-24T08:15:08.944Z,1001.8
2018-12-24T08:16:09.656Z,1001.9
2018-12-24T08:17:10.332Z,1001.8
2018-12-24T08:18:11.007Z,1001.9
2018-12-24T08:19:11.684Z,1001.9
2018-12-24T08:20:12.407Z,1001.9
2018-12-24T08:21:13.082Z,1001.9
2018-12-24T08:22:13.806Z,1001.9
2018-12-24T08:23:14.480Z,1001.9
2018-12-24T08:24:15.155Z,1001.9
2018-12-24T08:25:15.830Z,1002.0
2018-12-24T08:26:16.504Z,1002.0
2018-12-24T08:27:17.177Z,1002.0
2018-12-24T08:28:17.855Z,1002.0
2018-12-24T08:29:18.527Z,1002.0
2018-12-24T08:30:19.202Z,1002.1
2018-12-24T08:31:19.876Z,1002.1
2018-12-24T08:32:20.551Z,1002.2
2018-12-24T08:33:21.226Z,1002.2
2018-12-24T08:34:21.901Z,1002.2
2018-12-24T08:35:22.574Z,1002.2
2018-12-24T08:36:23.247Z,1002.2
2018-12-24T08:37:23.927Z,1002.3
2018-12-24T08:38:24.596Z,1002.4
2018-12-24T08:39:25.268Z,1002.4
2018-12-24T08:40:25.947Z,1002.4
2018-12-24T08:41:26.619Z,1002.3
2018-12-24T08:42:27.294Z,1002.4
2018-12-24T08:43:27.968Z,1002.4
2018-12-24T08:44:28.642Z,1002.4
2018-12-24T08:45:29.317Z,1002.4
2018-12-24T08:46:29.992Z,1002.5
2018-12-24T08:47:30.665Z,1002.5
2018-12-24T08:48:31.340Z,1002.6
2018-12-24T08:49:32.015Z,1002.5
2018-12-24T08:50:32.691Z,1002.6
2018-12-24T08:51:33.366Z,1002.6
2018-12-24T08:52:34.040Z,1002.6
2018-12-24T08:53:34.715Z,1002.7
2018-12-24T08:54:35.391Z,1002.7
2018-12-24T08:55:36.064Z,1002.7
2018-12-24T08:56:36.739Z,1002.8
2018-12-24T08:57:37.414Z,1002.8
2018-12-24T08:58:38.091Z,1002.8
2018-12-24T08:59:38.766Z,1002.8
2018-12-24T09:00:39.443Z,1002.9
2018-12-24T09:01:40.116Z,1002.9
2018-12-24T09:02:40.789Z,1003.0
2018-12-24T09:03:41.467Z,1003.0
2018-12-24T09:04:42.140Z,1003.0
2018-12-24T09:05:42.816Z,1003.1
2018-12-24T09:06:43.491Z,1003.1
2018-12-24T09:07:44.167Z,1003.0
2018-12-24T09:08:44.843Z,1003.1
2018-12-24T09:09:45.519Z,1003.1
2018-12-24T09:10:46.193Z,1003.2
2018-12-24T09:11:46.868Z,1003.1
2018-12-24T09:12:47.544Z,1003.2
2018-12-24T09:13:48.219Z,1003.3
2018-12-24T09:14:50.332Z,1003.2
2018-12-24T09:15:50.559Z,1003.3
2018-12-24T09:16:51.284Z,1003.3
2018-12-24T09:17:51.960Z,1003.3
2018-12-24T09:18:52.634Z,1003.3
2018-12-24T09:19:53.313Z,1003.4
2018-12-24T09:20:53.987Z,1003.5
2018-12-24T09:21:54.665Z,1003.5
2018-12-24T09:22:55.336Z,1003.5
2018-12-24T09:23:56.012Z,1003.6
2018-12-24T09:24:56.686Z,1003.6
2018-12-24T09:25:57.362Z,1003.6
2018-12-24T09:26:58.037Z,1003.7
2018-12-24T09:27:58.713Z,1003.7
2018-12-24T09:28:59.390Z,1003.7
2018-12-24T09:30:00.098Z,1003.7
2018-12-24T09:31:00.789Z,1003.7
2018-12-24T09:32:01.467Z,1003.7
2018-12-24T09:33:02.143Z,1003.8
2018-12-24T09:34:02.819Z,1003.8
2018-12-24T09:35:03.494Z,1003.7
2018-12-24T09:36:04.171Z,1003.8
2018-12-24T09:37:04.845Z,1003.8
2018-12-24T09:38:05.521Z,1003.8
2018-12-24T09:39:06.196Z,1003.8
2018-12-24T09:40:06.871Z,1003.9
2018-12-24T09:41:07.552Z,1003.9
2018-12-24T09:42:08.222Z,1003.9
2018-12-24T09:43:08.899Z,1004.0
2018-12-24T09:44:09.574Z,1004.0
2018-12-24T09:45:10.247Z,1004.0
2018-12-24T09:46:10.925Z,1004.1
2018-12-24T09:47:11.601Z,1004.1
2018-12-24T09:48:12.278Z,1004.0
2018-12-24T09:49:12.956Z,1004.1
2018-12-24T09:50:13.630Z,1004.1
2018-12-24T09:51:14.305Z,1004.1
2018-12-24T09:52:15.039Z,1004.2
2018-12-24T09:53:15.701Z,1004.2
2018-12-24T09:54:16.377Z,1004.2
2018-12-24T09:55:17.051Z,1004.2
2018-12-24T09:56:17.728Z,1004.2
2018-12-24T09:57:18.401Z,1004.2
2018-12-24T09:58:19.078Z,1004.2
2018-12-24T09:59:19.754Z,1004.2
2018-12-24T10:00:20.429Z,1004.2
2018-12-24T10:01:21.107Z,1004.2
2018-12-24T10:02:21.780Z,1004.3
2018-12-24T10:03:22.459Z,1004.3
2018-12-24T10:04:23.135Z,1004.3
2018-12-24T10:05:23.809Z,1004.3
2018-12-24T10:06:24.490Z,1004.4
2018-12-24T10:07:25.160Z,1004.4
2018-12-24T10:08:25.844Z,1004.4
2018-12-24T10:09:26.513Z,1004.4
2018-12-24T10:10:27.189Z,1004.4
2018-12-24T10:11:27.864Z,1004.4
2018-12-24T10:12:28.539Z,1004.4
2018-12-24T10:13:29.215Z,1004.4
2018-12-24T10:14:29.940Z,1004.4
2018-12-24T10:15:30.608Z,1004.4
2018-12-24T10:16:31.284Z,1004.4
2018-12-24T10:17:31.959Z,1004.4
2018-12-24T10:18:32.637Z,1004.4
2018-12-24T10:19:33.312Z,1004.4
2018-12-24T10:20:33.989Z,1004.4
2018-12-24T10:21:34.664Z,1004.4
2018-12-24T10:22:35.343Z,1004.4
2018-12-24T10:23:36.015Z,1004.4
2018-12-24T10:24:36.693Z,1004.3
2018-12-24T10:25:37.367Z,1004.4
2018-12-24T10:26:38.043Z,1004.4
2018-12-24T10:27:38.718Z,1004.4
2018-12-24T10:28:39.395Z,1004.3
2018-12-24T10:29:40.071Z,1004.4
2018-12-24T10:30:40.748Z,1004.4
2018-12-24T10:31:41.423Z,1004.4
2018-12-24T10:32:42.099Z,1004.4
2018-12-24T10:33:42.776Z,1004.5
2018-12-24T10:34:43.452Z,1004.5
2018-12-24T10:35:44.128Z,1004.4
2018-12-24T10:36:44.805Z,1004.5
2018-12-24T10:37:45.527Z,1004.5
2018-12-24T10:38:46.203Z,1004.5
2018-12-24T10:39:46.877Z,1004.5
2018-12-24T10:40:47.552Z,1004.5
2018-12-24T10:41:48.227Z,1004.5
2018-12-24T10:42:48.902Z,1004.5
2018-12-24T10:43:49.579Z,1004.4
2018-12-24T10:44:50.253Z,1004.5
2018-12-24T10:45:50.930Z,1004.5
2018-12-24T10:46:51.605Z,1004.5
2018-12-24T10:47:52.280Z,1004.5
2018-12-24T10:48:52.957Z,1004.5
2018-12-24T10:49:53.631Z,1004.5
2018-12-24T10:50:54.306Z,1004.5
2018-12-24T10:51:54.983Z,1004.5
2018-12-24T10:52:55.660Z,1004.4
2018-12-24T10:53:56.335Z,1004.4
2018-12-24T10:54:57.010Z,1004.5
2018-12-24T10:55:57.683Z,1004.4
2018-12-24T10:56:58.360Z,1004.4
2018-12-24T10:57:59.038Z,1004.4
2018-12-24T10:58:59.710Z,1004.4
2018-12-24T11:00:00.475Z,1004.4
2018-12-24T11:01:01.104Z,1004.4
2018-12-24T11:02:01.779Z,1004.5
2018-12-24T11:03:02.453Z,1004.5
2018-12-24T11:04:03.127Z,1004.5
2018-12-24T11:05:03.805Z,1004.4
2018-12-24T11:06:04.483Z,1004.5
2018-12-24T11:07:05.156Z,1004.4
2018-12-24T11:08:05.832Z,1004.4
2018-12-24T11:09:06.511Z,1004.5
2018-12-24T11:10:07.189Z,1004.5
2018-12-24T11:11:07.866Z,1004.5
2018-12-24T11:12:08.543Z,1004.5
2018-12-24T11:13:09.264Z,1004.5
2018-12-24T11:14:09.938Z,1004.5
2018-12-24T11:15:10.617Z,1004.6
2018-12-24T11:16:11.292Z,1004.6
2018-12-24T11:17:11.967Z,1004.6
2018-12-24T11:18:12.642Z,1004.6
2018-12-24T11:19:13.317Z,1004.6
2018-12-24T11:20:14.062Z,1004.6
2018-12-24T11:21:14.716Z,1004.6
2018-12-24T11:22:15.385Z,1004.7
2018-12-24T11:23:16.061Z,1004.6
2018-12-24T11:24:16.739Z,1004.6
2018-12-24T11:25:17.413Z,1004.6
2018-12-24T11:26:18.089Z,1004.7
2018-12-24T11:27:18.764Z,1004.7
2018-12-24T11:28:19.441Z,1004.7
2018-12-24T11:29:20.214Z,1004.7
2018-12-24T11:30:20.842Z,1004.7
2018-12-24T11:31:21.516Z,1004.8
2018-12-24T11:32:22.192Z,1004.8
2018-12-24T11:33:22.880Z,1004.8
2018-12-24T11:34:23.593Z,1004.8
2018-12-24T11:35:24.269Z,1004.8
2018-12-24T11:36:24.944Z,1004.9
2018-12-24T11:37:25.618Z,1004.9
2018-12-24T11:38:26.296Z,1004.9
2018-12-24T11:39:26.971Z,1004.8
2018-12-24T11:40:27.645Z,1004.9
2018-12-24T11:41:28.321Z,1004.9
2018-12-24T11:42:28.999Z,1004.9
2018-12-24T11:43:29.674Z,1004.9
2018-12-24T11:44:30.348Z,1004.9
2018-12-24T11:45:33.908Z,1004.9
2018-12-24T11:46:31.743Z,1004.9
2018-12-24T11:47:32.419Z,1004.9
2018-12-24T11:48:33.093Z,1005.0
2018-12-24T11:49:33.766Z,1005.0
2018-12-24T11:50:34.441Z,1005.0
2018-12-24T11:51:35.117Z,1005.0
2018-12-24T11:52:35.789Z,1005.0
2018-12-24T11:53:36.463Z,1005.0
2018-12-24T11:54:37.139Z,1005.0
2018-12-24T11:55:37.813Z,1005.0
2018-12-24T11:56:38.487Z,1005.0
2018-12-24T11:57:39.212Z,1005.0
2018-12-24T11:58:39.888Z,1005.0
2018-12-24T11:59:40.611Z,1005.0
2018-12-24T12:00:41.287Z,1005.1
2018-12-24T12:01:41.963Z,1005.0
2018-12-24T12:02:42.635Z,1005.0
2018-12-24T12:03:43.309Z,1005.1
2018-12-24T12:04:43.986Z,1005.0
2018-12-24T12:05:44.658Z,1005.1
2018-12-24T12:06:45.334Z,1005.0
2018-12-24T12:07:46.010Z,1005.1
2018-12-24T12:08:46.683Z,1005.1
2018-12-24T12:09:47.357Z,1005.1
2018-12-24T12:10:48.032Z,1005.1
2018-12-24T12:11:48.705Z,1005.1
2018-12-24T12:12:49.380Z,1005.1
2018-12-24T12:13:50.053Z,1005.1
2018-12-24T12:14:50.728Z,1005.1
2018-12-24T12:15:51.401Z,1005.1
2018-12-24T12:16:52.074Z,1005.2
2018-12-24T12:17:52.748Z,1005.2
2018-12-24T12:18:53.424Z,1005.1
2018-12-24T12:19:54.094Z,1005.2
2018-12-24T12:20:54.769Z,1005.2
2018-12-24T12:21:55.443Z,1005.2
2018-12-24T12:22:56.115Z,1005.3
2018-12-24T12:23:56.788Z,1005.2
2018-12-24T12:24:57.463Z,1005.3
2018-12-24T12:25:58.135Z,1005.3
2018-12-24T12:26:58.809Z,1005.3
2018-12-24T12:27:59.483Z,1005.3
2018-12-24T12:29:00.157Z,1005.3
2018-12-24T12:30:00.881Z,1005.4
2018-12-24T12:31:01.555Z,1005.3
2018-12-24T12:32:02.279Z,1005.4
2018-12-24T12:33:02.953Z,1005.4
2018-12-24T12:34:03.631Z,1005.4
2018-12-24T12:35:04.308Z,1005.4
2018-12-24T12:36:04.975Z,1005.4
2018-12-24T12:37:05.651Z,1005.4
2018-12-24T12:38:06.324Z,1005.5
2018-12-24T12:39:06.999Z,1005.5
2018-12-24T12:40:07.720Z,1005.5
2018-12-24T12:41:08.396Z,1005.5
2018-12-24T12:42:09.069Z,1005.5
2018-12-24T12:43:09.741Z,1005.6
2018-12-24T12:44:10.416Z,1005.6
2018-12-24T12:45:11.091Z,1005.6
2018-12-24T12:46:11.767Z,1005.6
2018-12-24T12:47:12.441Z,1005.6
2018-12-24T12:48:13.114Z,1005.6
2018-12-24T12:49:13.791Z,1005.7
2018-12-24T12:50:14.468Z,1005.7